createdAt,value
2018-10-16T00:00:04.086Z,37.90
2018-10-16T00:02:36.160Z,36.63
2018-10-16T00:05:08.788Z,36.90
2018-10-16T00:10:23.332Z,37.90
2018-10-16T00:15:42.957Z,39.13
2018-10-16T00:18:15.585Z,35.60
2018-10-16T00:20:47.626Z,37.27
2018-10-16T00:23:19.981Z,40.80
2018-10-16T00:25:52.533Z,41.77
2018-10-16T00:28:24.633Z,34.88
2018-10-16T00:30:57.829Z,35.87
2018-10-16T00:33:30.151Z,34.50
2018-10-16T00:36:03.512Z,39.42
2018-10-16T00:38:36.064Z,36.07
2018-10-16T00:41:09.248Z,44.27
2018-10-16T00:43:41.358Z,41.77
2018-10-16T00:46:13.770Z,37.55
2018-10-16T00:48:45.835Z,34.43
2018-10-16T00:51:18.460Z,31.60
2018-10-16T00:53:50.251Z,32.03
2018-10-16T00:56:23.161Z,32.28
2018-10-16T00:58:55.959Z,34.45
2018-10-16T01:01:31.486Z,33.00
2018-10-16T01:04:06.308Z,40.78
2018-10-16T01:09:15.061Z,42.37
2018-10-16T01:11:46.973Z,33.00
2018-10-16T01:14:19.316Z,28.37
2018-10-16T01:16:51.427Z,37.95
2018-10-16T01:19:23.660Z,33.00
2018-10-16T01:21:55.910Z,32.27
2018-10-16T01:24:27.938Z,35.68
2018-10-16T01:27:00.496Z,32.73
2018-10-16T01:29:32.537Z,35.93
2018-10-16T01:32:04.793Z,30.30
2018-10-16T01:34:36.903Z,39.63
2018-10-16T01:37:09.416Z,36.35
2018-10-16T01:39:41.918Z,34.92
2018-10-16T01:42:14.661Z,32.67
2018-10-16T01:44:50.671Z,34.95
2018-10-16T01:47:23.225Z,35.92
2018-10-16T01:49:55.108Z,31.60
2018-10-16T01:52:27.636Z,33.75
2018-10-16T01:54:59.856Z,34.63
2018-10-16T01:57:31.703Z,46.08
2018-10-16T02:00:03.840Z,42.05
2018-10-16T02:02:36.013Z,39.70
2018-10-16T02:05:09.157Z,40.52
2018-10-16T02:07:41.504Z,40.43
2018-10-16T02:10:18.275Z,41.10
2018-10-16T02:12:50.497Z,44.13
2018-10-16T02:15:22.711Z,38.23
2018-10-16T02:17:54.752Z,42.03
2018-10-16T02:20:27.500Z,44.47
2018-10-16T02:22:59.841Z,46.93
2018-10-16T02:25:35.654Z,44.98
2018-10-16T02:28:08.223Z,53.48
2018-10-16T02:30:40.279Z,42.37
2018-10-16T02:33:12.247Z,34.48
2018-10-16T02:35:44.492Z,36.70
2018-10-16T02:40:52.378Z,43.20
2018-10-16T02:43:24.525Z,42.83
2018-10-16T02:45:57.954Z,40.03
2018-10-16T02:48:29.786Z,41.28
2018-10-16T02:51:01.737Z,34.45
2018-10-16T02:53:34.337Z,47.87
2018-10-16T02:56:06.922Z,52.08
2018-10-16T02:58:39.153Z,58.33
2018-10-16T03:01:12.142Z,40.80
2018-10-16T03:03:43.805Z,44.93
2018-10-16T03:06:15.966Z,46.20
2018-10-16T03:08:48.083Z,48.65
2018-10-16T03:11:20.283Z,45.80
2018-10-16T03:13:52.949Z,50.90
2018-10-16T03:16:24.756Z,40.78
2018-10-16T03:18:56.597Z,43.50
2018-10-16T03:21:28.677Z,50.17
2018-10-16T03:24:00.951Z,52.90
2018-10-16T03:26:36.559Z,49.50
2018-10-16T03:29:09.073Z,49.13
2018-10-16T03:31:41.755Z,47.35
2018-10-16T03:34:13.528Z,50.03
2018-10-16T03:36:46.060Z,42.50
2018-10-16T03:39:18.122Z,40.60
2018-10-16T03:41:50.123Z,48.67
2018-10-16T03:44:22.126Z,43.75
2018-10-16T03:46:54.731Z,43.35
2018-10-16T03:49:29.327Z,45.40
2018-10-16T03:52:02.140Z,38.70
2018-10-16T03:54:34.246Z,44.10
2018-10-16T03:57:07.658Z,45.25
2018-10-16T03:59:39.678Z,40.37
2018-10-16T04:02:11.703Z,42.65
2018-10-16T04:07:19.633Z,35.70
2018-10-16T04:09:51.919Z,45.40
2018-10-16T04:12:24.024Z,45.57
2018-10-16T04:14:56.574Z,39.90
2018-10-16T04:17:28.361Z,37.60
2018-10-16T04:20:00.608Z,55.40
2018-10-16T04:22:32.955Z,40.00
2018-10-16T04:25:04.645Z,39.43
2018-10-16T04:30:13.800Z,49.50
2018-10-16T04:32:45.800Z,48.63
2018-10-16T04:35:19.410Z,41.98
2018-10-16T04:37:51.062Z,48.23
2018-10-16T04:40:23.818Z,44.20
2018-10-16T04:42:55.891Z,44.42
2018-10-16T04:45:27.905Z,46.37
2018-10-16T04:47:59.821Z,42.40
2018-10-16T04:53:08.140Z,43.37
2018-10-16T04:55:40.478Z,39.23
2018-10-16T05:00:49.283Z,44.27
2018-10-16T05:03:21.093Z,44.40
2018-10-16T05:05:53.741Z,38.10
2018-10-16T05:08:25.984Z,47.27
2018-10-16T05:10:58.794Z,38.13
2018-10-16T05:13:30.872Z,42.73
2018-10-16T05:16:03.626Z,38.58
2018-10-16T05:21:11.806Z,34.27
2018-10-16T05:23:43.825Z,41.97
2018-10-16T05:26:16.699Z,38.45
2018-10-16T05:28:49.081Z,41.60
2018-10-16T05:31:21.173Z,43.70
2018-10-16T05:33:53.300Z,37.48
2018-10-16T05:36:24.966Z,38.67
2018-10-16T05:38:58.684Z,44.80
2018-10-16T05:41:30.496Z,48.57
2018-10-16T05:44:02.360Z,44.15
2018-10-16T05:46:34.141Z,61.13
2018-10-16T05:49:06.806Z,50.12
2018-10-16T05:51:38.816Z,53.80
2018-10-16T05:54:10.527Z,45.63
2018-10-16T05:56:42.180Z,44.03
2018-10-16T05:59:13.994Z,43.02
2018-10-16T06:01:45.892Z,46.02
2018-10-16T06:04:17.886Z,39.48
2018-10-16T06:06:50.195Z,41.55
2018-10-16T06:09:22.666Z,45.30
2018-10-16T06:11:54.941Z,41.73
2018-10-16T06:14:28.900Z,42.67
2018-10-16T06:17:01.392Z,42.13
2018-10-16T06:19:33.238Z,41.85
2018-10-16T06:22:05.073Z,36.35
2018-10-16T06:24:36.793Z,46.77
2018-10-16T06:27:08.564Z,48.20
2018-10-16T06:29:40.301Z,57.83
2018-10-16T06:32:11.705Z,44.40
2018-10-16T06:37:19.785Z,40.20
2018-10-16T06:42:27.674Z,42.23
2018-10-16T06:44:59.271Z,41.90
2018-10-16T06:50:09.457Z,50.20
2018-10-16T06:52:41.205Z,51.77
2018-10-16T06:55:12.870Z,50.63
2018-10-16T06:57:44.996Z,48.83
2018-10-16T07:00:16.526Z,42.25
2018-10-16T07:02:47.866Z,45.40
2018-10-16T07:05:19.772Z,48.83
2018-10-16T07:07:51.504Z,44.20
2018-10-16T07:10:23.189Z,43.38
2018-10-16T07:12:56.741Z,46.00
2018-10-16T07:15:28.597Z,51.07
2018-10-16T07:18:00.660Z,47.07
2018-10-16T07:20:32.319Z,51.20
2018-10-16T07:25:39.971Z,48.27
2018-10-16T07:30:48.613Z,51.13
2018-10-16T07:33:20.083Z,59.27
2018-10-16T07:35:51.996Z,56.30
2018-10-16T07:38:23.777Z,47.00
2018-10-16T07:40:55.933Z,47.83
2018-10-16T07:43:27.867Z,60.50
2018-10-16T07:45:59.330Z,45.00
2018-10-16T07:48:31.115Z,47.75
2018-10-16T07:51:02.967Z,51.85
2018-10-16T07:53:34.347Z,61.53
2018-10-16T07:56:07.423Z,51.60
2018-10-16T07:58:39.159Z,59.80
2018-10-16T08:03:47.326Z,46.53
2018-10-16T08:06:18.910Z,52.88
2018-10-16T08:08:50.572Z,49.53
2018-10-16T08:11:22.253Z,58.65
2018-10-16T08:13:54.393Z,56.20
2018-10-16T08:16:27.139Z,56.70
2018-10-16T08:18:58.756Z,63.20
2018-10-16T08:21:30.202Z,52.73
2018-10-16T08:24:02.442Z,59.95
2018-10-16T08:29:10.581Z,57.73
2018-10-16T08:31:42.251Z,57.35
2018-10-16T08:36:50.418Z,49.57
2018-10-16T08:39:31.072Z,47.43
2018-10-16T08:43:25.195Z,51.70
2018-10-16T08:46:14.073Z,51.65
2018-10-16T08:49:02.679Z,56.23
2018-10-16T08:54:11.354Z,52.80
2018-10-16T08:56:43.082Z,49.63
2018-10-16T08:59:14.649Z,47.78
2018-10-16T09:01:47.379Z,38.47
2018-10-16T09:04:19.019Z,45.58
2018-10-16T09:06:51.544Z,43.90
2018-10-16T09:09:23.035Z,42.13
2018-10-16T09:11:54.525Z,48.55
2018-10-16T09:14:26.758Z,48.00
2018-10-16T09:16:59.270Z,29.37
2018-10-16T09:19:31.119Z,37.73
2018-10-16T09:22:02.926Z,44.85
2018-10-16T09:24:34.488Z,40.43
2018-10-16T09:27:07.394Z,37.00
2018-10-16T09:29:40.454Z,32.53
2018-10-16T09:32:12.067Z,36.23
2018-10-16T09:34:43.661Z,38.20
2018-10-16T09:37:19.601Z,34.00
2018-10-16T09:39:51.342Z,28.07
2018-10-16T09:42:23.163Z,26.80
2018-10-16T09:44:54.971Z,39.33
2018-10-16T09:47:26.817Z,24.07
2018-10-16T09:49:58.729Z,25.02
2018-10-16T09:55:08.053Z,21.40
2018-10-16T10:00:21.365Z,23.97
2018-10-16T10:02:54.017Z,19.05
2018-10-16T10:05:26.042Z,14.27
2018-10-16T10:10:37.417Z,12.00
2018-10-16T10:15:47.403Z,15.20
2018-10-16T10:18:19.663Z,16.32
2018-10-16T10:20:51.095Z,11.17
2018-10-16T10:23:24.100Z,12.78
2018-10-16T10:25:56.656Z,11.10
2018-10-16T10:28:28.215Z,10.77
2018-10-16T10:30:59.797Z,9.30
2018-10-16T10:36:07.417Z,11.37
2018-10-16T10:38:39.568Z,14.30
2018-10-16T10:41:11.408Z,14.87
2018-10-16T10:43:43.046Z,11.88
2018-10-16T10:46:15.130Z,10.37
2018-10-16T10:48:47.117Z,8.68
2018-10-16T10:51:19.193Z,9.10
2018-10-16T10:53:50.537Z,13.58
2018-10-16T10:56:22.507Z,8.98
2018-10-16T10:58:53.980Z,11.97
2018-10-16T11:01:26.160Z,8.40
2018-10-16T11:03:58.674Z,9.03
2018-10-16T11:06:30.840Z,8.37
2018-10-16T11:09:02.792Z,10.43
2018-10-16T11:14:18.339Z,9.87
2018-10-16T11:16:50.209Z,9.33
2018-10-16T11:19:22.484Z,10.27
2018-10-16T11:21:54.957Z,9.53
2018-10-16T11:24:27.313Z,11.97
2018-10-16T11:26:59.374Z,12.00
2018-10-16T11:29:31.293Z,9.03
2018-10-16T11:32:03.273Z,6.65
2018-10-16T11:34:38.942Z,8.60
2018-10-16T11:37:10.509Z,6.67
2018-10-16T11:39:42.129Z,6.60
2018-10-16T11:42:13.771Z,11.85
2018-10-16T11:44:45.668Z,10.45
2018-10-16T11:47:18.013Z,8.08
2018-10-16T11:52:26.509Z,8.30
2018-10-16T11:54:58.206Z,6.75
2018-10-16T12:00:09.986Z,10.83
2018-10-16T12:02:41.650Z,9.08
2018-10-16T12:05:13.792Z,7.67
2018-10-16T12:10:21.091Z,7.43
2018-10-16T12:12:52.787Z,8.03
2018-10-16T12:15:24.390Z,7.20
2018-10-16T12:18:01.329Z,9.03
2018-10-16T12:20:37.141Z,8.20
2018-10-16T12:25:44.549Z,7.37
2018-10-16T12:28:19.711Z,7.78
2018-10-16T12:30:51.499Z,11.67
2018-10-16T12:36:01.362Z,10.77
2018-10-16T12:38:33.291Z,7.10
2018-10-16T12:41:05.389Z,9.85
2018-10-16T12:46:13.640Z,8.40
2018-10-16T12:48:47.970Z,8.30
2018-10-16T12:51:20.076Z,11.45
2018-10-16T12:53:52.001Z,9.43
2018-10-16T12:56:24.017Z,8.40
2018-10-16T12:58:55.768Z,11.60
2018-10-16T13:01:27.770Z,8.30
2018-10-16T13:03:59.175Z,7.30
2018-10-16T13:06:30.890Z,8.85
2018-10-16T13:09:02.796Z,10.37
2018-10-16T13:14:11.167Z,24.87
2018-10-16T13:19:18.757Z,10.10
2018-10-16T13:24:26.409Z,10.57
2018-10-16T13:26:58.447Z,29.17
2018-10-16T13:29:31.470Z,15.20
2018-10-16T13:32:03.902Z,16.75
2018-10-16T13:34:35.587Z,12.95
2018-10-16T13:37:07.461Z,8.73
2018-10-16T13:39:40.397Z,10.50
2018-10-16T13:42:12.671Z,9.43
2018-10-16T13:44:44.312Z,8.53
2018-10-16T13:47:16.745Z,9.60
2018-10-16T13:52:25.495Z,12.23
2018-10-16T13:54:57.362Z,9.33
2018-10-16T13:57:28.910Z,15.40
2018-10-16T14:00:00.946Z,13.47
2018-10-16T14:05:09.630Z,12.33
2018-10-16T14:10:17.798Z,12.63
2018-10-16T14:12:50.061Z,9.13
2018-10-16T14:15:21.855Z,11.00
2018-10-16T14:17:53.435Z,13.00
2018-10-16T14:20:25.915Z,7.67
2018-10-16T14:22:57.636Z,11.23
2018-10-16T14:25:29.264Z,10.13
2018-10-16T14:28:01.101Z,9.10
2018-10-16T14:33:10.725Z,10.77
2018-10-16T14:35:42.504Z,11.50
2018-10-16T14:38:14.358Z,11.75
2018-10-16T14:43:22.149Z,16.57
2018-10-16T14:45:58.089Z,12.07
2018-10-16T14:48:30.231Z,12.85
2018-10-16T14:51:01.902Z,16.27
2018-10-16T14:56:11.394Z,11.23
2018-10-16T14:58:43.379Z,12.37
2018-10-16T15:01:15.876Z,8.93
2018-10-16T15:06:24.072Z,17.57
2018-10-16T15:08:56.437Z,15.30
2018-10-16T15:11:28.613Z,16.80
2018-10-16T15:14:00.421Z,18.83
2018-10-16T15:16:32.364Z,16.90
2018-10-16T15:19:04.556Z,30.33
2018-10-16T15:21:36.888Z,26.70
2018-10-16T15:24:08.994Z,23.95
2018-10-16T15:26:40.550Z,25.10
2018-10-16T15:31:17.749Z,14.47
2018-10-16T15:33:49.632Z,12.97
2018-10-16T15:36:21.477Z,16.10
2018-10-16T15:38:54.097Z,14.20
2018-10-16T15:41:26.259Z,12.83
2018-10-16T15:43:58.313Z,12.47
2018-10-16T15:46:30.202Z,15.93
2018-10-16T15:49:02.051Z,14.87
2018-10-16T15:51:33.914Z,24.90
2018-10-16T15:54:06.691Z,14.30
2018-10-16T15:56:38.562Z,19.03
2018-10-16T16:14:16.076Z,31.60
2018-10-16T16:16:47.947Z,22.02
2018-10-16T16:21:55.667Z,25.73
2018-10-16T16:24:32.061Z,29.60
2018-10-16T16:27:04.354Z,22.80
2018-10-16T16:29:36.702Z,23.92
2018-10-16T16:32:08.784Z,25.40
2018-10-16T16:34:40.964Z,30.80
2018-10-16T16:37:12.911Z,30.48
2018-10-16T16:42:20.403Z,38.97
2018-10-16T16:44:52.480Z,32.75
2018-10-16T16:50:01.079Z,36.47
2018-10-16T16:52:32.826Z,38.33
2018-10-16T16:55:05.001Z,43.63
2018-10-16T16:57:36.612Z,42.20
2018-10-16T17:00:10.711Z,45.33
2018-10-16T17:05:19.208Z,54.33
2018-10-16T17:10:26.649Z,53.47
2018-10-16T17:12:58.028Z,53.68
2018-10-16T17:15:29.887Z,43.37
2018-10-16T17:18:02.123Z,49.20
2018-10-16T17:20:33.873Z,39.63
2018-10-16T17:23:06.436Z,40.00
2018-10-16T17:25:38.447Z,48.77
2018-10-16T17:28:10.282Z,46.13
2018-10-16T17:30:41.767Z,60.67
2018-10-16T17:35:50.597Z,55.27
2018-10-16T17:38:22.150Z,46.13
2018-10-16T17:40:53.941Z,50.43
2018-10-16T17:43:25.970Z,48.50
2018-10-16T17:45:57.568Z,52.25
2018-10-16T17:48:30.427Z,53.37
2018-10-16T17:51:02.918Z,49.80
2018-10-16T17:53:34.590Z,48.27
2018-10-16T17:58:49.111Z,53.90
2018-10-16T18:01:21.338Z,52.47
2018-10-16T18:03:53.844Z,49.30
2018-10-16T18:06:25.635Z,43.52
2018-10-16T18:08:57.142Z,44.23
2018-10-16T18:11:29.161Z,45.37
2018-10-16T18:14:00.689Z,48.80
2018-10-16T18:16:34.690Z,45.83
2018-10-16T18:21:43.944Z,39.07
2018-10-16T18:24:15.560Z,37.83
2018-10-16T18:29:24.555Z,39.80
2018-10-16T18:31:55.934Z,47.13
2018-10-16T18:34:27.493Z,38.85
2018-10-16T18:36:59.248Z,44.10
2018-10-16T18:39:31.213Z,43.30
2018-10-16T18:42:02.579Z,36.93
2018-10-16T18:47:11.223Z,44.47
2018-10-16T18:49:45.896Z,35.10
2018-10-16T18:52:18.034Z,33.58
2018-10-16T18:54:49.597Z,36.33
2018-10-16T18:57:21.856Z,36.23
2018-10-16T18:59:54.157Z,39.42
2018-10-16T19:02:25.799Z,38.78
2018-10-16T19:04:57.493Z,36.25
2018-10-16T19:07:29.504Z,36.97
2018-10-16T19:10:01.430Z,39.70
2018-10-16T19:12:33.857Z,35.53
2018-10-16T19:15:07.895Z,34.24
2018-10-16T19:17:39.842Z,46.63
2018-10-16T19:20:12.535Z,53.23
2018-10-16T19:22:44.731Z,53.07
2018-10-16T19:25:19.038Z,48.83
2018-10-16T19:27:50.464Z,40.70
2018-10-16T19:30:21.882Z,48.00
2018-10-16T19:32:53.876Z,40.17
2018-10-16T19:35:26.171Z,42.80
2018-10-16T19:37:58.516Z,52.62
2018-10-16T19:40:30.251Z,41.83
2018-10-16T19:43:01.811Z,41.53
2018-10-16T19:45:34.000Z,42.62
2018-10-16T19:48:07.274Z,38.93
2018-10-16T19:50:38.802Z,43.57
2018-10-16T19:53:10.309Z,46.90
2018-10-16T19:58:19.059Z,39.87
2018-10-16T20:03:27.058Z,45.27
2018-10-16T20:05:58.700Z,43.25
2018-10-16T20:08:30.304Z,41.77
2018-10-16T20:11:02.468Z,41.75
2018-10-16T20:13:34.070Z,44.53
2018-10-16T20:16:10.821Z,40.70
2018-10-16T20:18:43.362Z,44.33
2018-10-16T20:21:15.140Z,46.20
2018-10-16T20:23:47.486Z,48.25
2018-10-16T20:26:19.416Z,43.87
2018-10-16T20:28:52.797Z,43.23
2018-10-16T20:31:24.929Z,45.28
2018-10-16T20:33:56.717Z,44.35
2018-10-16T20:39:07.845Z,43.57
2018-10-16T20:41:40.153Z,49.27
2018-10-16T20:44:11.858Z,49.03
2018-10-16T20:46:43.874Z,46.63
2018-10-16T20:49:15.802Z,44.67
2018-10-16T20:54:23.183Z,45.30
2018-10-16T20:59:30.489Z,50.97
2018-10-16T21:02:02.572Z,47.63
2018-10-16T21:04:34.166Z,44.50
2018-10-16T21:07:07.628Z,44.23
2018-10-16T21:09:39.875Z,47.73
2018-10-16T21:14:47.794Z,44.43
2018-10-16T21:17:19.382Z,52.70
2018-10-16T21:19:51.174Z,41.83
2018-10-16T21:22:23.026Z,45.43
2018-10-16T21:24:55.014Z,48.57
2018-10-16T21:27:26.608Z,44.50
2018-10-16T21:29:58.266Z,46.83
2018-10-16T21:32:29.946Z,43.50
2018-10-16T21:35:01.964Z,49.73
2018-10-16T21:37:34.007Z,49.63
2018-10-16T21:40:07.553Z,46.63
2018-10-16T21:42:39.946Z,47.83
2018-10-16T21:45:11.738Z,48.60
2018-10-16T21:47:43.884Z,49.97
2018-10-16T21:50:15.460Z,46.67
2018-10-16T21:52:47.603Z,49.63
2018-10-16T21:55:19.043Z,47.33
2018-10-16T21:57:50.941Z,48.65
2018-10-16T22:03:06.940Z,49.00
2018-10-16T22:08:17.325Z,44.40
2018-10-16T22:10:49.419Z,45.27
2018-10-16T22:13:21.249Z,49.80
2018-10-16T22:15:53.514Z,47.98
2018-10-16T22:18:32.088Z,41.90
2018-10-16T22:21:03.872Z,46.00
2018-10-16T22:23:35.910Z,43.02
2018-10-16T22:26:08.922Z,43.30
2018-10-16T22:28:41.576Z,44.85
2018-10-16T22:31:14.005Z,44.53
2018-10-16T22:33:47.045Z,48.55
2018-10-16T22:36:18.488Z,47.37
2018-10-16T22:38:50.192Z,51.23
2018-10-16T22:41:21.880Z,48.17
2018-10-16T22:43:54.030Z,48.27
2018-10-16T22:46:30.154Z,45.97
2018-10-16T22:49:01.946Z,43.93
2018-10-16T22:51:33.983Z,48.17
2018-10-16T22:54:06.568Z,40.92
2018-10-16T22:59:15.152Z,46.10
2018-10-16T23:01:47.649Z,39.42
2018-10-16T23:04:19.823Z,39.30
2018-10-16T23:06:59.294Z,39.83
2018-10-16T23:09:31.017Z,43.47
2018-10-16T23:12:03.527Z,55.65
2018-10-16T23:17:11.699Z,62.73
2018-10-16T23:19:44.230Z,66.47
2018-10-16T23:22:17.066Z,65.90
2018-10-16T23:24:48.922Z,53.97
2018-10-16T23:27:20.798Z,60.88
2018-10-16T23:29:52.383Z,59.93
2018-10-16T23:32:24.432Z,47.25
2018-10-16T23:34:56.732Z,48.73
2018-10-16T23:37:29.245Z,48.37
2018-10-16T23:40:01.554Z,47.83
2018-10-16T23:42:33.990Z,48.33
2018-10-16T23:45:06.922Z,49.67
2018-10-16T23:47:39.166Z,55.58
2018-10-16T23:52:52.940Z,46.67
2018-10-16T23:55:27.341Z,42.63
2018-10-16T23:57:59.127Z,51.33
